sensor_id;sensor_type;location;lat;lon;timestamp;pressure;altitude;pressure_sealevel;temperature;humidity
70506;BME280;58032;49.820;6.274;2024-02-28T00:02:04;67390.78;;;-149.55;100.00
70506;BME280;58032;49.820;6.274;2024-02-28T00:04:31;67390.78;;;-149.55;100.00
70506;BME280;58032;49.820;6.274;2024-02-28T00:06:58;67390.78;;;-149.55;100.00
70506;BME280;58032;49.820;6.274;2024-02-28T00:09:25;67390.78;;;-149.55;100.00
70506;BME280;58032;49.820;6.274;2024-02-28T00:11:52;67390.78;;;-149.55;100.00
70506;BME280;58032;49.820;6.274;2024-02-28T00:14:19;67390.78;;;-149.55;100.00
70506;BME280;58032;49.820;6.274;2024-02-28T00:16:46;67390.78;;;-149.55;100.00
70506;BME280;58032;49.820;6.274;2024-02-28T00:19:14;67390.78;;;-149.55;100.00
70506;BME280;58032;49.820;6.274;2024-02-28T00:21:42;67390.78;;;-149.55;100.00
70506;BME280;58032;49.820;6.274;2024-02-28T00:24:09;67390.78;;;-149.55;100.00
70506;BME280;58032;49.820;6.274;2024-02-28T00:26:40;67390.78;;;-149.55;100.00
70506;BME280;58032;49.820;6.274;2024-02-28T00:29:09;67390.78;;;-149.55;100.00
70506;BME280;58032;49.820;6.274;2024-02-28T00:31:36;67390.78;;;-149.55;100.00
70506;BME280;58032;49.820;6.274;2024-02-28T00:34:03;67390.78;;;-149.55;100.00
70506;BME280;58032;49.820;6.274;2024-02-28T00:36:30;67390.78;;;-149.55;100.00
70506;BME280;58032;49.820;6.274;2024-02-28T00:39:03;67390.78;;;-149.55;100.00
70506;BME280;58032;49.820;6.274;2024-02-28T00:41:30;67390.78;;;-149.55;100.00
70506;BME280;58032;49.820;6.274;2024-02-28T00:43:57;67390.78;;;-149.55;100.00
70506;BME280;58032;49.820;6.274;2024-02-28T00:46:24;67390.78;;;-149.55;100.00
70506;BME280;58032;49.820;6.274;2024-02-28T00:48:51;67390.78;;;-149.55;100.00
70506;BME280;58032;49.820;6.274;2024-02-28T00:51:18;67390.78;;;-149.55;100.00
70506;BME280;58032;49.820;6.274;2024-02-28T00:53:45;67390.78;;;-149.55;100.00
70506;BME280;58032;49.820;6.274;2024-02-28T00:56:12;67390.78;;;-149.55;100.00
70506;BME280;58032;49.820;6.274;2024-02-28T00:58:39;67390.78;;;-149.55;100.00
70506;BME280;58032;49.820;6.274;2024-02-28T01:01:06;67390.78;;;-149.55;100.00
70506;BME280;58032;49.820;6.274;2024-02-28T01:03:34;67390.78;;;-149.55;100.00
70506;BME280;58032;49.820;6.274;2024-02-28T01:06:00;67390.78;;;-149.55;100.00
70506;BME280;58032;49.820;6.274;2024-02-28T01:08:28;67390.78;;;-149.55;100.00
70506;BME280;58032;49.820;6.274;2024-02-28T01:10:55;67390.78;;;-149.55;100.00
70506;BME280;58032;49.820;6.274;2024-02-28T01:13:22;67390.78;;;-149.55;100.00
70506;BME280;58032;49.820;6.274;2024-02-28T01:15:49;67390.78;;;-149.55;100.00
70506;BME280;58032;49.820;6.274;2024-02-28T01:18:16;67390.78;;;-149.55;100.00
70506;BME280;58032;49.820;6.274;2024-02-28T01:20:43;67390.78;;;-149.55;100.00
70506;BME280;58032;49.820;6.274;2024-02-28T01:23:11;67390.78;;;-149.55;100.00
70506;BME280;58032;49.820;6.274;2024-02-28T01:25:38;67390.78;;;-149.55;100.00
70506;BME280;58032;49.820;6.274;2024-02-28T01:28:05;67390.78;;;-149.55;100.00
70506;BME280;58032;49.820;6.274;2024-02-28T01:30:32;67390.78;;;-149.55;100.00
70506;BME280;58032;49.820;6.274;2024-02-28T01:32:59;67390.78;;;-149.55;100.00
70506;BME280;58032;49.820;6.274;2024-02-28T01:35:26;67390.78;;;-149.55;100.00
70506;BME280;58032;49.820;6.274;2024-02-28T01:37:53;67390.78;;;-149.55;100.00
70506;BME280;58032;49.820;6.274;2024-02-28T01:40:20;67390.78;;;-149.55;100.00
70506;BME280;58032;49.820;6.274;2024-02-28T01:42:48;67390.78;;;-149.55;100.00
70506;BME280;58032;49.820;6.274;2024-02-28T01:45:15;67390.78;;;-149.55;100.00
70506;BME280;58032;49.820;6.274;2024-02-28T01:47:42;67390.78;;;-149.55;100.00
70506;BME280;58032;49.820;6.274;2024-02-28T01:50:10;67390.78;;;-149.55;100.00
70506;BME280;58032;49.820;6.274;2024-02-28T01:52:39;67390.78;;;-149.55;100.00
70506;BME280;58032;49.820;6.274;2024-02-28T01:55:07;67390.78;;;-149.55;100.00
70506;BME280;58032;49.820;6.274;2024-02-28T01:57:36;67390.78;;;-149.55;100.00
70506;BME280;58032;49.820;6.274;2024-02-28T02:00:05;67390.78;;;-149.55;100.00
70506;BME280;58032;49.820;6.274;2024-02-28T02:02:35;67390.78;;;-149.55;100.00
70506;BME280;58032;49.820;6.274;2024-02-28T02:05:02;67390.78;;;-149.55;100.00
70506;BME280;58032;49.820;6.274;2024-02-28T02:07:30;67390.78;;;-149.55;100.00
70506;BME280;58032;49.820;6.274;2024-02-28T02:09:58;67390.78;;;-149.55;100.00
70506;BME280;58032;49.820;6.274;2024-02-28T02:12:25;67390.78;;;-149.55;100.00
70506;BME280;58032;49.820;6.274;2024-02-28T02:14:52;67390.78;;;-149.55;100.00
70506;BME280;58032;49.820;6.274;2024-02-28T02:17:19;67390.78;;;-149.55;100.00
70506;BME280;58032;49.820;6.274;2024-02-28T02:19:46;67390.78;;;-149.55;100.00
70506;BME280;58032;49.820;6.274;2024-02-28T02:22:13;67390.78;;;-149.55;100.00
70506;BME280;58032;49.820;6.274;2024-02-28T02:24:41;67390.78;;;-149.55;100.00
70506;BME280;58032;49.820;6.274;2024-02-28T02:27:08;67390.78;;;-149.55;100.00
70506;BME280;58032;49.820;6.274;2024-02-28T02:29:35;67390.78;;;-149.55;100.00
70506;BME280;58032;49.820;6.274;2024-02-28T02:32:02;67390.78;;;-149.55;100.00
70506;BME280;58032;49.820;6.274;2024-02-28T02:34:29;67390.78;;;-149.55;100.00
70506;BME280;58032;49.820;6.274;2024-02-28T02:36:56;67390.78;;;-149.55;100.00
70506;BME280;58032;49.820;6.274;2024-02-28T02:39:23;67390.78;;;-149.55;100.00
70506;BME280;58032;49.820;6.274;2024-02-28T02:41:50;67390.78;;;-149.55;100.00
70506;BME280;58032;49.820;6.274;2024-02-28T02:44:17;67390.78;;;-149.55;100.00
70506;BME280;58032;49.820;6.274;2024-02-28T02:46:44;67390.78;;;-149.55;100.00
70506;BME280;58032;49.820;6.274;2024-02-28T02:49:11;67390.78;;;-149.55;100.00
70506;BME280;58032;49.820;6.274;2024-02-28T02:51:39;67390.78;;;-149.55;100.00
70506;BME280;58032;49.820;6.274;2024-02-28T02:54:06;67390.78;;;-149.55;100.00
70506;BME280;58032;49.820;6.274;2024-02-28T02:56:33;67390.78;;;-149.55;100.00
70506;BME280;58032;49.820;6.274;2024-02-28T02:58:59;67390.78;;;-149.55;100.00
70506;BME280;58032;49.820;6.274;2024-02-28T03:01:26;67390.78;;;-149.55;100.00
70506;BME280;58032;49.820;6.274;2024-02-28T03:03:53;67390.78;;;-149.55;100.00
70506;BME280;58032;49.820;6.274;2024-02-28T03:06:21;67390.78;;;-149.55;100.00
70506;BME280;58032;49.820;6.274;2024-02-28T03:08:50;67390.78;;;-149.55;100.00
70506;BME280;58032;49.820;6.274;2024-02-28T03:11:18;67390.78;;;-149.55;100.00
70506;BME280;58032;49.820;6.274;2024-02-28T03:13:45;67390.78;;;-149.55;100.00
70506;BME280;58032;49.820;6.274;2024-02-28T03:16:12;67390.78;;;-149.55;100.00
70506;BME280;58032;49.820;6.274;2024-02-28T03:18:39;67390.78;;;-149.55;100.00
70506;BME280;58032;49.820;6.274;2024-02-28T03:21:06;67390.78;;;-149.55;100.00
70506;BME280;58032;49.820;6.274;2024-02-28T03:23:33;67390.78;;;-149.55;100.00
70506;BME280;58032;49.820;6.274;2024-02-28T03:26:03;67390.78;;;-149.55;100.00
70506;BME280;58032;49.820;6.274;2024-02-28T03:28:30;67390.78;;;-149.55;100.00
70506;BME280;58032;49.820;6.274;2024-02-28T03:30:57;67390.78;;;-149.55;100.00
70506;BME280;58032;49.820;6.274;2024-02-28T03:33:24;67390.78;;;-149.55;100.00
70506;BME280;58032;49.820;6.274;2024-02-28T03:35:51;67390.78;;;-149.55;100.00
70506;BME280;58032;49.820;6.274;2024-02-28T03:38:18;67390.78;;;-149.55;100.00
70506;BME280;58032;49.820;6.274;2024-02-28T03:40:45;67390.78;;;-149.55;100.00
70506;BME280;58032;49.820;6.274;2024-02-28T03:43:12;67390.78;;;-149.55;100.00
70506;BME280;58032;49.820;6.274;2024-02-28T03:45:40;67390.78;;;-149.55;100.00
70506;BME280;58032;49.820;6.274;2024-02-28T03:48:07;67390.78;;;-149.55;100.00
70506;BME280;58032;49.820;6.274;2024-02-28T03:50:34;67390.78;;;-149.55;100.00
70506;BME280;58032;49.820;6.274;2024-02-28T03:53:01;67390.78;;;-149.55;100.00
70506;BME280;58032;49.820;6.274;2024-02-28T03:55:29;67390.78;;;-149.55;100.00
70506;BME280;58032;49.820;6.274;2024-02-28T03:57:55;67390.78;;;-149.55;100.00
70506;BME280;58032;49.820;6.274;2024-02-28T04:00:22;67390.78;;;-149.55;100.00
70506;BME280;58032;49.820;6.274;2024-02-28T04:02:50;67390.78;;;-149.55;100.00
70506;BME280;58032;49.820;6.274;2024-02-28T04:05:17;67390.78;;;-149.55;100.00
70506;BME280;58032;49.820;6.274;2024-02-28T04:07:44;67390.78;;;-149.55;100.00
70506;BME280;58032;49.820;6.274;2024-02-28T04:10:11;67390.78;;;-149.55;100.00
70506;BME280;58032;49.820;6.274;2024-02-28T04:12:38;67390.78;;;-149.55;100.00
70506;BME280;58032;49.820;6.274;2024-02-28T04:15:05;67390.78;;;-149.55;100.00
70506;BME280;58032;49.820;6.274;2024-02-28T04:17:32;67390.78;;;-149.55;100.00
70506;BME280;58032;49.820;6.274;2024-02-28T04:19:59;67390.78;;;-149.55;100.00
70506;BME280;58032;49.820;6.274;2024-02-28T04:22:31;67390.78;;;-149.55;100.00
70506;BME280;58032;49.820;6.274;2024-02-28T04:24:58;67390.78;;;-149.55;100.00
70506;BME280;58032;49.820;6.274;2024-02-28T04:27:25;67390.78;;;-149.55;100.00
70506;BME280;58032;49.820;6.274;2024-02-28T04:29:52;67390.78;;;-149.55;100.00
70506;BME280;58032;49.820;6.274;2024-02-28T04:32:19;67390.78;;;-149.55;100.00
70506;BME280;58032;49.820;6.274;2024-02-28T04:34:46;67390.78;;;-149.55;100.00
70506;BME280;58032;49.820;6.274;2024-02-28T04:37:13;67390.78;;;-149.55;100.00
70506;BME280;58032;49.820;6.274;2024-02-28T04:39:40;67390.78;;;-149.55;100.00
70506;BME280;58032;49.820;6.274;2024-02-28T04:42:07;67390.78;;;-149.55;100.00
70506;BME280;58032;49.820;6.274;2024-02-28T04:44:34;67390.78;;;-149.55;100.00
70506;BME280;58032;49.820;6.274;2024-02-28T04:47:01;67390.78;;;-149.55;100.00
70506;BME280;58032;49.820;6.274;2024-02-28T04:49:28;67390.78;;;-149.55;100.00
70506;BME280;58032;49.820;6.274;2024-02-28T04:51:55;67390.78;;;-149.55;100.00
70506;BME280;58032;49.820;6.274;2024-02-28T04:54:22;67390.78;;;-149.55;100.00
70506;BME280;58032;49.820;6.274;2024-02-28T04:56:49;67390.78;;;-149.55;100.00
70506;BME280;58032;49.820;6.274;2024-02-28T04:59:17;67390.78;;;-149.55;100.00
70506;BME280;58032;49.820;6.274;2024-02-28T05:01:44;67390.78;;;-149.55;100.00
70506;BME280;58032;49.820;6.274;2024-02-28T05:04:12;67390.78;;;-149.55;100.00
70506;BME280;58032;49.820;6.274;2024-02-28T05:06:39;67390.78;;;-149.55;100.00
70506;BME280;58032;49.820;6.274;2024-02-28T05:09:06;67390.78;;;-149.55;100.00
70506;BME280;58032;49.820;6.274;2024-02-28T05:11:34;67390.78;;;-149.55;100.00
70506;BME280;58032;49.820;6.274;2024-02-28T05:14:01;67390.78;;;-149.55;100.00
70506;BME280;58032;49.820;6.274;2024-02-28T05:16:28;67390.78;;;-149.55;100.00
70506;BME280;58032;49.820;6.274;2024-02-28T05:18:55;67390.78;;;-149.55;100.00
70506;BME280;58032;49.820;6.274;2024-02-28T05:21:22;67390.78;;;-149.55;100.00
70506;BME280;58032;49.820;6.274;2024-02-28T05:23:49;67390.78;;;-149.55;100.00
70506;BME280;58032;49.820;6.274;2024-02-28T05:26:16;67390.78;;;-149.55;100.00
70506;BME280;58032;49.820;6.274;2024-02-28T05:28:43;67390.78;;;-149.55;100.00
70506;BME280;58032;49.820;6.274;2024-02-28T05:31:24;67390.78;;;-149.55;100.00
70506;BME280;58032;49.820;6.274;2024-02-28T05:33:52;67390.78;;;-149.55;100.00
70506;BME280;58032;49.820;6.274;2024-02-28T05:36:21;67390.78;;;-149.55;100.00
70506;BME280;58032;49.820;6.274;2024-02-28T05:38:49;67390.78;;;-149.55;100.00
70506;BME280;58032;49.820;6.274;2024-02-28T05:41:16;67390.78;;;-149.55;100.00
70506;BME280;58032;49.820;6.274;2024-02-28T05:43:44;67390.78;;;-149.55;100.00
70506;BME280;58032;49.820;6.274;2024-02-28T05:46:13;67390.78;;;-149.55;100.00
70506;BME280;58032;49.820;6.274;2024-02-28T05:48:41;67390.78;;;-149.55;100.00
70506;BME280;58032;49.820;6.274;2024-02-28T05:51:08;67390.78;;;-149.55;100.00
70506;BME280;58032;49.820;6.274;2024-02-28T05:53:35;67390.78;;;-149.55;100.00
70506;BME280;58032;49.820;6.274;2024-02-28T05:56:03;67390.78;;;-149.55;100.00
70506;BME280;58032;49.820;6.274;2024-02-28T05:58:30;67390.78;;;-149.55;100.00
70506;BME280;58032;49.820;6.274;2024-02-28T06:00:57;67390.78;;;-149.55;100.00
70506;BME280;58032;49.820;6.274;2024-02-28T06:03:24;67390.78;;;-149.55;100.00
70506;BME280;58032;49.820;6.274;2024-02-28T06:05:52;67390.78;;;-149.55;100.00
70506;BME280;58032;49.820;6.274;2024-02-28T06:08:19;67390.78;;;-149.55;100.00
70506;BME280;58032;49.820;6.274;2024-02-28T06:10:46;67390.78;;;-149.55;100.00
70506;BME280;58032;49.820;6.274;2024-02-28T06:13:13;67390.78;;;-149.55;100.00
70506;BME280;58032;49.820;6.274;2024-02-28T06:15:40;67390.78;;;-149.55;100.00
70506;BME280;58032;49.820;6.274;2024-02-28T06:18:09;67390.78;;;-149.55;100.00
70506;BME280;58032;49.820;6.274;2024-02-28T06:20:36;67390.78;;;-149.55;100.00
70506;BME280;58032;49.820;6.274;2024-02-28T06:23:04;67390.78;;;-149.55;100.00
70506;BME280;58032;49.820;6.274;2024-02-28T06:25:33;67390.78;;;-149.55;100.00
70506;BME280;58032;49.820;6.274;2024-02-28T06:28:01;67390.78;;;-149.55;100.00
70506;BME280;58032;49.820;6.274;2024-02-28T06:30:29;67390.78;;;-149.55;100.00
70506;BME280;58032;49.820;6.274;2024-02-28T06:32:59;67390.78;;;-149.55;100.00
70506;BME280;58032;49.820;6.274;2024-02-28T06:35:27;67390.78;;;-149.55;100.00
70506;BME280;58032;49.820;6.274;2024-02-28T06:37:54;67390.78;;;-149.55;100.00
70506;BME280;58032;49.820;6.274;2024-02-28T06:40:21;67390.78;;;-149.55;100.00
70506;BME280;58032;49.820;6.274;2024-02-28T06:42:48;67390.78;;;-149.55;100.00
70506;BME280;58032;49.820;6.274;2024-02-28T06:45:15;67390.78;;;-149.55;100.00
70506;BME280;58032;49.820;6.274;2024-02-28T06:47:42;67390.78;;;-149.55;100.00
70506;BME280;58032;49.820;6.274;2024-02-28T06:50:11;67390.78;;;-149.55;100.00
70506;BME280;58032;49.820;6.274;2024-02-28T06:52:39;67390.78;;;-149.55;100.00
70506;BME280;58032;49.820;6.274;2024-02-28T06:55:06;67390.78;;;-149.55;100.00
70506;BME280;58032;49.820;6.274;2024-02-28T06:57:37;67390.78;;;-149.55;100.00
70506;BME280;58032;49.820;6.274;2024-02-28T07:00:06;67390.78;;;-149.55;100.00
70506;BME280;58032;49.820;6.274;2024-02-28T07:02:35;67390.78;;;-149.55;100.00
70506;BME280;58032;49.820;6.274;2024-02-28T07:05:03;67390.78;;;-149.55;100.00
70506;BME280;58032;49.820;6.274;2024-02-28T07:07:33;67390.78;;;-149.55;100.00
70506;BME280;58032;49.820;6.274;2024-02-28T07:10:03;67390.78;;;-149.55;100.00
70506;BME280;58032;49.820;6.274;2024-02-28T07:12:31;67390.78;;;-149.55;100.00
70506;BME280;58032;49.820;6.274;2024-02-28T07:14:58;67390.78;;;-149.55;100.00
70506;BME280;58032;49.820;6.274;2024-02-28T07:17:25;67390.78;;;-149.55;100.00
70506;BME280;58032;49.820;6.274;2024-02-28T07:19:52;97452.13;;;9.06;100.00
70506;BME280;58032;49.820;6.274;2024-02-28T07:22:19;98117.03;;;2.02;100.00
70506;BME280;58032;49.820;6.274;2024-02-28T07:24:48;98125.53;;;2.46;100.00
70506;BME280;58032;49.820;6.274;2024-02-28T07:27:15;98127.88;;;2.22;100.00
70506;BME280;58032;49.820;6.274;2024-02-28T07:29:43;98136.13;;;2.15;100.00
70506;BME280;58032;49.820;6.274;2024-02-28T07:32:10;98130.94;;;2.02;100.00
70506;BME280;58032;49.820;6.274;2024-02-28T07:34:39;98130.84;;;1.88;100.00
70506;BME280;58032;49.820;6.274;2024-02-28T07:37:06;98133.28;;;1.37;100.00
70506;BME280;58032;49.820;6.274;2024-02-28T07:39:33;98137.22;;;1.33;100.00
70506;BME280;58032;49.820;6.274;2024-02-28T07:42:00;98148.91;;;1.12;100.00
70506;BME280;58032;49.820;6.274;2024-02-28T07:44:27;98143.38;;;1.60;100.00
70506;BME280;58032;49.820;6.274;2024-02-28T07:46:57;98138.81;;;1.93;100.00
70506;BME280;58032;49.820;6.274;2024-02-28T07:49:25;98138.78;;;1.89;100.00
70506;BME280;58032;49.820;6.274;2024-02-28T07:51:54;98143.34;;;2.30;100.00
70506;BME280;58032;49.820;6.274;2024-02-28T07:54:21;98146.19;;;2.37;100.00
70506;BME280;58032;49.820;6.274;2024-02-28T07:56:48;98151.84;;;2.63;100.00
70506;BME280;58032;49.820;6.274;2024-02-28T07:59:15;98151.25;;;2.17;100.00
70506;BME280;58032;49.820;6.274;2024-02-28T08:01:42;98149.91;;;1.93;100.00
70506;BME280;58032;49.820;6.274;2024-02-28T08:04:09;98149.91;;;1.93;100.00
70506;BME280;58032;49.820;6.274;2024-02-28T08:06:36;98151.78;;;2.45;100.00
70506;BME280;58032;49.820;6.274;2024-02-28T08:09:03;98155.09;;;2.90;100.00
70506;BME280;58032;49.820;6.274;2024-02-28T08:11:31;86222.09;;;2.90;100.00
70506;BME280;58032;49.820;6.274;2024-02-28T08:13:58;67390.78;;;-149.55;0.00
70506;BME280;58032;49.820;6.274;2024-02-28T08:16:25;76559.31;;;-149.55;100.00
70506;BME280;58032;49.820;6.274;2024-02-28T08:18:53;67390.78;;;-149.55;100.00
70506;BME280;58032;49.820;6.274;2024-02-28T08:21:20;67390.78;;;-149.55;100.00
70506;BME280;58032;49.820;6.274;2024-02-28T08:23:47;105149.31;;;-149.55;100.00
70506;BME280;58032;49.820;6.274;2024-02-28T08:26:14;67390.78;;;-149.55;100.00
70506;BME280;58032;49.820;6.274;2024-02-28T08:28:41;67390.78;;;-149.55;100.00
70506;BME280;58032;49.820;6.274;2024-02-28T08:31:08;67390.78;;;-149.55;100.00
70506;BME280;58032;49.820;6.274;2024-02-28T08:33:35;67390.78;;;-149.55;100.00
70506;BME280;58032;49.820;6.274;2024-02-28T08:36:03;67390.78;;;-149.55;100.00
70506;BME280;58032;49.820;6.274;2024-02-28T08:38:30;67390.78;;;-149.55;100.00
70506;BME280;58032;49.820;6.274;2024-02-28T08:40:57;67390.78;;;-149.55;100.00
70506;BME280;58032;49.820;6.274;2024-02-28T08:43:24;67390.78;;;-149.55;100.00
70506;BME280;58032;49.820;6.274;2024-02-28T08:45:51;67390.78;;;-149.55;100.00
70506;BME280;58032;49.820;6.274;2024-02-28T08:48:18;67390.78;;;-149.55;100.00
70506;BME280;58032;49.820;6.274;2024-02-28T08:50:45;67390.78;;;-149.55;100.00
70506;BME280;58032;49.820;6.274;2024-02-28T08:53:12;67390.78;;;-149.55;100.00
70506;BME280;58032;49.820;6.274;2024-02-28T08:55:39;67390.78;;;-149.55;100.00
70506;BME280;58032;49.820;6.274;2024-02-28T08:58:06;67390.78;;;-149.55;100.00
70506;BME280;58032;49.820;6.274;2024-02-28T09:00:33;67390.78;;;-149.55;100.00
70506;BME280;58032;49.820;6.274;2024-02-28T09:03:00;67390.78;;;-149.55;100.00
70506;BME280;58032;49.820;6.274;2024-02-28T09:05:28;67390.78;;;-149.55;100.00
70506;BME280;58032;49.820;6.274;2024-02-28T09:07:55;67390.78;;;-149.55;100.00
70506;BME280;58032;49.820;6.274;2024-02-28T09:10:24;67390.78;;;-149.55;100.00
70506;BME280;58032;49.820;6.274;2024-02-28T09:12:51;67390.78;;;-149.55;100.00
70506;BME280;58032;49.820;6.274;2024-02-28T09:15:19;67390.78;;;-149.55;100.00
70506;BME280;58032;49.820;6.274;2024-02-28T09:17:46;67390.78;;;-149.55;100.00
70506;BME280;58032;49.820;6.274;2024-02-28T09:20:13;67390.78;;;-149.55;100.00
70506;BME280;58032;49.820;6.274;2024-02-28T09:22:40;67390.78;;;-149.55;100.00
70506;BME280;58032;49.820;6.274;2024-02-28T09:25:08;67390.78;;;-149.55;100.00
70506;BME280;58032;49.820;6.274;2024-02-28T09:27:36;67390.78;;;-149.55;100.00
70506;BME280;58032;49.820;6.274;2024-02-28T09:30:04;67390.78;;;-149.55;100.00
70506;BME280;58032;49.820;6.274;2024-02-28T09:32:31;67390.78;;;-149.55;100.00
70506;BME280;58032;49.820;6.274;2024-02-28T09:34:58;67390.78;;;-149.55;100.00
70506;BME280;58032;49.820;6.274;2024-02-28T09:37:26;67390.78;;;-149.55;100.00
70506;BME280;58032;49.820;6.274;2024-02-28T09:39:53;67390.78;;;-149.55;100.00
70506;BME280;58032;49.820;6.274;2024-02-28T09:42:20;67390.78;;;-149.55;100.00
70506;BME280;58032;49.820;6.274;2024-02-28T09:44:47;67390.78;;;-149.55;100.00
70506;BME280;58032;49.820;6.274;2024-02-28T09:47:14;67390.78;;;-149.55;100.00
70506;BME280;58032;49.820;6.274;2024-02-28T09:49:42;67390.78;;;-149.55;100.00
70506;BME280;58032;49.820;6.274;2024-02-28T09:52:09;67390.78;;;-149.55;100.00
70506;BME280;58032;49.820;6.274;2024-02-28T09:54:36;67390.78;;;-149.55;100.00
70506;BME280;58032;49.820;6.274;2024-02-28T09:57:04;67390.78;;;-149.55;100.00
70506;BME280;58032;49.820;6.274;2024-02-28T09:59:31;67390.78;;;-149.55;100.00
70506;BME280;58032;49.820;6.274;2024-02-28T10:02:01;67390.78;;;-149.55;100.00
70506;BME280;58032;49.820;6.274;2024-02-28T10:04:30;67390.78;;;-149.55;100.00
70506;BME280;58032;49.820;6.274;2024-02-28T10:06:59;67390.78;;;-149.55;100.00
70506;BME280;58032;49.820;6.274;2024-02-28T10:09:36;67390.78;;;-149.55;100.00
70506;BME280;58032;49.820;6.274;2024-02-28T10:12:03;67390.78;;;-149.55;100.00
70506;BME280;58032;49.820;6.274;2024-02-28T10:14:30;67390.78;;;-149.55;100.00
70506;BME280;58032;49.820;6.274;2024-02-28T10:16:57;67390.78;;;-149.55;100.00
70506;BME280;58032;49.820;6.274;2024-02-28T10:19:24;67390.78;;;-149.55;100.00
70506;BME280;58032;49.820;6.274;2024-02-28T10:21:51;67390.78;;;-149.55;100.00
70506;BME280;58032;49.820;6.274;2024-02-28T10:24:18;67390.78;;;-149.55;100.00
70506;BME280;58032;49.820;6.274;2024-02-28T10:26:46;67390.78;;;-149.55;100.00
70506;BME280;58032;49.820;6.274;2024-02-28T10:29:25;67390.78;;;-149.55;100.00
70506;BME280;58032;49.820;6.274;2024-02-28T10:31:57;67390.78;;;-149.55;100.00
70506;BME280;58032;49.820;6.274;2024-02-28T10:34:25;67390.78;;;-149.55;100.00
70506;BME280;58032;49.820;6.274;2024-02-28T10:36:52;67390.78;;;-149.55;100.00
70506;BME280;58032;49.820;6.274;2024-02-28T10:39:21;67390.78;;;-149.55;100.00
70506;BME280;58032;49.820;6.274;2024-02-28T10:41:50;67390.78;;;-149.55;100.00
70506;BME280;58032;49.820;6.274;2024-02-28T10:44:20;67390.78;;;-149.55;100.00
70506;BME280;58032;49.820;6.274;2024-02-28T10:46:49;67390.78;;;-149.55;100.00
70506;BME280;58032;49.820;6.274;2024-02-28T10:49:17;67390.78;;;-149.55;100.00
70506;BME280;58032;49.820;6.274;2024-02-28T10:51:46;67390.78;;;-149.55;100.00
70506;BME280;58032;49.820;6.274;2024-02-28T10:54:15;67390.78;;;-149.55;100.00
70506;BME280;58032;49.820;6.274;2024-02-28T10:56:42;67390.78;;;-149.55;100.00
70506;BME280;58032;49.820;6.274;2024-02-28T10:59:11;67390.78;;;-149.55;100.00
70506;BME280;58032;49.820;6.274;2024-02-28T11:01:42;67390.78;;;-149.55;100.00
70506;BME280;58032;49.820;6.274;2024-02-28T11:04:10;67390.78;;;-149.55;100.00
70506;BME280;58032;49.820;6.274;2024-02-28T11:06:51;67390.78;;;-149.55;100.00
70506;BME280;58032;49.820;6.274;2024-02-28T11:09:23;67390.78;;;-149.55;100.00
70506;BME280;58032;49.820;6.274;2024-02-28T11:11:51;67390.78;;;-149.55;100.00
70506;BME280;58032;49.820;6.274;2024-02-28T11:14:19;67390.78;;;-149.55;100.00
70506;BME280;58032;49.820;6.274;2024-02-28T11:17:02;67390.78;;;-149.55;100.00
70506;BME280;58032;49.820;6.274;2024-02-28T11:19:31;67390.78;;;-149.55;100.00
70506;BME280;58032;49.820;6.274;2024-02-28T11:22:00;67390.78;;;-149.55;100.00
70506;BME280;58032;49.820;6.274;2024-02-28T11:24:31;67390.78;;;-149.55;100.00
70506;BME280;58032;49.820;6.274;2024-02-28T11:26:58;67390.78;;;-149.55;100.00
70506;BME280;58032;49.820;6.274;2024-02-28T11:29:27;67390.78;;;-149.55;100.00
70506;BME280;58032;49.820;6.274;2024-02-28T11:31:55;67390.78;;;-149.55;100.00
70506;BME280;58032;49.820;6.274;2024-02-28T11:34:22;67390.78;;;-149.55;100.00
70506;BME280;58032;49.820;6.274;2024-02-28T11:36:50;67390.78;;;-149.55;100.00
70506;BME280;58032;49.820;6.274;2024-02-28T11:39:18;67390.78;;;-149.55;100.00
70506;BME280;58032;49.820;6.274;2024-02-28T11:41:45;67390.78;;;-149.55;100.00
70506;BME280;58032;49.820;6.274;2024-02-28T11:44:15;67390.78;;;-149.55;100.00
70506;BME280;58032;49.820;6.274;2024-02-28T11:46:46;67390.78;;;-149.55;100.00
70506;BME280;58032;49.820;6.274;2024-02-28T11:49:13;67390.78;;;-149.55;100.00
70506;BME280;58032;49.820;6.274;2024-02-28T11:51:44;67390.78;;;-149.55;100.00
70506;BME280;58032;49.820;6.274;2024-02-28T11:54:11;67390.78;;;-149.55;100.00
70506;BME280;58032;49.820;6.274;2024-02-28T11:56:39;67390.78;;;-149.55;100.00
70506;BME280;58032;49.820;6.274;2024-02-28T11:59:07;67390.78;;;-149.55;100.00
70506;BME280;58032;49.820;6.274;2024-02-28T12:01:36;67390.78;;;-149.55;100.00
70506;BME280;58032;49.820;6.274;2024-02-28T12:04:06;67390.78;;;-149.55;100.00
70506;BME280;58032;49.820;6.274;2024-02-28T12:06:34;67390.78;;;-149.55;100.00
70506;BME280;58032;49.820;6.274;2024-02-28T12:09:04;67390.78;;;-149.55;100.00
70506;BME280;58032;49.820;6.274;2024-02-28T12:11:31;67390.78;;;-149.55;100.00
70506;BME280;58032;49.820;6.274;2024-02-28T12:13:58;67390.78;;;-149.55;100.00
70506;BME280;58032;49.820;6.274;2024-02-28T12:16:26;67390.78;;;-149.55;100.00
70506;BME280;58032;49.820;6.274;2024-02-28T12:18:54;67390.78;;;-149.55;100.00
70506;BME280;58032;49.820;6.274;2024-02-28T12:21:21;67390.78;;;-149.55;100.00
70506;BME280;58032;49.820;6.274;2024-02-28T12:23:49;67390.78;;;-149.55;100.00
70506;BME280;58032;49.820;6.274;2024-02-28T12:26:17;67390.78;;;-149.55;100.00
70506;BME280;58032;49.820;6.274;2024-02-28T12:28:47;67390.78;;;-149.55;100.00
70506;BME280;58032;49.820;6.274;2024-02-28T12:31:14;98155.09;;;2.90;100.00
70506;BME280;58032;49.820;6.274;2024-02-28T12:33:41;67390.78;;;-149.55;100.00
70506;BME280;58032;49.820;6.274;2024-02-28T12:36:09;67390.78;;;-149.55;100.00